createdAt,value
2017-11-29T00:01:55.946Z,9.00
2017-11-29T00:04:24.018Z,10.30
2017-11-29T00:06:52.075Z,14.45
2017-11-29T00:09:20.159Z,10.65
2017-11-29T00:11:48.214Z,14.85
2017-11-29T00:14:16.314Z,14.95
2017-11-29T00:16:44.391Z,13.73
2017-11-29T00:19:12.559Z,11.48
2017-11-29T00:21:40.634Z,12.00
2017-11-29T00:24:08.711Z,15.85
2017-11-29T00:26:36.767Z,14.98
2017-11-29T00:29:04.857Z,17.52
2017-11-29T00:31:32.916Z,16.58
2017-11-29T00:34:01.003Z,18.02
2017-11-29T00:36:29.164Z,15.25
2017-11-29T00:38:57.339Z,16.73
2017-11-29T00:41:25.933Z,17.70
2017-11-29T00:43:54.090Z,14.30
2017-11-29T00:46:22.263Z,20.83
2017-11-29T00:48:50.438Z,18.52
2017-11-29T00:51:18.610Z,15.10
2017-11-29T00:53:46.686Z,14.63
2017-11-29T00:56:14.748Z,13.73
2017-11-29T00:58:42.819Z,13.52
2017-11-29T01:01:10.879Z,13.10
2017-11-29T01:03:38.951Z,18.42
2017-11-29T01:06:07.460Z,13.68
2017-11-29T01:08:35.521Z,13.38
2017-11-29T01:11:03.583Z,14.73
2017-11-29T01:13:31.670Z,14.05
2017-11-29T01:15:59.730Z,15.35
2017-11-29T01:18:27.811Z,15.02
2017-11-29T01:20:55.882Z,17.00
2017-11-29T01:23:23.959Z,13.30
2017-11-29T01:25:52.421Z,14.40
2017-11-29T01:28:20.479Z,13.93
2017-11-29T01:30:49.335Z,14.32
2017-11-29T01:33:17.479Z,12.07
2017-11-29T01:35:45.538Z,13.48
2017-11-29T01:38:14.441Z,13.50
2017-11-29T01:40:42.616Z,13.35
2017-11-29T01:43:10.688Z,13.48
2017-11-29T01:45:38.741Z,13.05
2017-11-29T01:48:06.827Z,14.32
2017-11-29T01:50:34.895Z,13.20
2017-11-29T01:53:02.968Z,15.68
2017-11-29T01:55:31.047Z,14.48
2017-11-29T01:57:59.494Z,13.30
2017-11-29T02:00:34.117Z,13.90
2017-11-29T02:03:02.951Z,14.35
2017-11-29T02:05:31.422Z,13.98
2017-11-29T02:07:59.600Z,13.75
2017-11-29T02:10:27.666Z,14.10
2017-11-29T02:12:55.744Z,14.68
2017-11-29T02:15:23.815Z,12.35
2017-11-29T02:17:51.898Z,13.32
2017-11-29T02:20:20.719Z,14.70
2017-11-29T02:22:49.162Z,13.85
2017-11-29T02:25:18.048Z,12.50
2017-11-29T02:27:46.944Z,12.13
2017-11-29T02:30:15.784Z,16.77
2017-11-29T02:32:44.639Z,12.52
2017-11-29T02:35:12.792Z,13.62
2017-11-29T02:37:40.849Z,15.25
2017-11-29T02:40:21.318Z,13.98
2017-11-29T02:42:49.374Z,12.43
2017-11-29T02:45:17.905Z,15.82
2017-11-29T03:22:13.214Z,11.23
2017-11-29T03:24:41.287Z,10.10
2017-11-29T03:27:09.334Z,9.82
2017-11-29T03:29:37.790Z,11.48
2017-11-29T03:32:05.830Z,9.80
2017-11-29T03:34:34.290Z,11.12
2017-11-29T03:37:02.334Z,12.32
2017-11-29T03:39:31.254Z,10.90
2017-11-29T03:42:00.454Z,10.50
2017-11-29T03:44:28.502Z,10.55
2017-11-29T03:46:56.623Z,15.98
2017-11-29T03:49:24.774Z,9.07
2017-11-29T03:51:52.834Z,11.07
2017-11-29T03:54:20.913Z,11.18
2017-11-29T03:56:48.974Z,10.30
2017-11-29T03:59:17.058Z,10.75
2017-11-29T04:01:45.131Z,11.12
2017-11-29T04:16:33.150Z,10.88
2017-11-29T04:19:01.222Z,10.77
2017-11-29T04:21:29.294Z,9.00
2017-11-29T04:23:57.371Z,13.05
2017-11-29T04:26:25.419Z,10.25
2017-11-29T04:28:53.510Z,10.65
2017-11-29T04:31:21.571Z,9.65
2017-11-29T04:33:50.394Z,10.15
2017-11-29T04:36:18.546Z,11.80
2017-11-29T04:38:46.606Z,10.35
2017-11-29T04:41:14.691Z,12.13
2017-11-29T04:43:42.777Z,11.77
2017-11-29T04:46:10.839Z,11.85
2017-11-29T04:48:38.906Z,11.43
2017-11-29T04:51:07.106Z,10.38
2017-11-29T04:53:35.155Z,11.73
2017-11-29T04:56:03.326Z,13.65
2017-11-29T04:58:32.154Z,14.32
2017-11-29T05:01:00.218Z,12.35
2017-11-29T05:03:28.277Z,13.65
2017-11-29T05:05:56.435Z,12.23
2017-11-29T05:08:24.607Z,13.57
2017-11-29T05:10:52.677Z,13.32
2017-11-29T05:13:20.768Z,13.00
2017-11-29T05:15:48.815Z,12.23
2017-11-29T05:18:16.894Z,12.40
2017-11-29T05:20:44.970Z,14.45
2017-11-29T05:23:13.014Z,14.65
2017-11-29T05:25:41.110Z,14.57
2017-11-29T05:28:09.287Z,13.90
2017-11-29T05:30:37.357Z,14.57
2017-11-29T05:33:05.535Z,13.38
2017-11-29T05:35:33.602Z,15.85
2017-11-29T05:38:01.775Z,14.18
2017-11-29T05:40:29.832Z,15.10
2017-11-29T05:42:57.882Z,15.50
2017-11-29T05:45:26.813Z,15.65
2017-11-29T05:47:54.870Z,19.35
2017-11-29T05:50:22.951Z,16.52
2017-11-29T06:02:44.730Z,17.50
2017-11-29T06:05:12.803Z,20.60
2017-11-29T06:07:41.265Z,16.52
2017-11-29T06:10:10.102Z,19.77
2017-11-29T06:12:39.525Z,20.62
2017-11-29T06:15:07.565Z,18.45
2017-11-29T06:17:36.161Z,17.25
2017-11-29T06:20:05.039Z,25.85
2017-11-29T06:27:30.278Z,15.30
2017-11-29T06:29:59.101Z,15.05
2017-11-29T06:32:27.240Z,14.13
2017-11-29T06:34:56.039Z,16.20
2017-11-29T06:37:24.511Z,15.18
2017-11-29T06:39:52.578Z,14.52
2017-11-29T06:47:17.327Z,15.65
2017-11-29T08:01:09.780Z,25.67
2017-11-29T08:03:37.845Z,33.80
2017-11-29T08:06:05.915Z,27.20
2017-11-29T08:08:33.976Z,25.62
2017-11-29T08:11:02.036Z,24.08
2017-11-29T08:13:30.099Z,25.55
2017-11-29T08:15:58.918Z,22.33
2017-11-29T08:18:27.063Z,21.85
2017-11-29T08:20:55.884Z,23.73
2017-11-29T08:23:24.030Z,24.52
2017-11-29T08:25:52.205Z,21.70
2017-11-29T08:28:20.658Z,24.08
2017-11-29T08:30:48.754Z,22.73
2017-11-29T08:33:17.947Z,23.77
2017-11-29T08:35:46.783Z,22.85
2017-11-29T08:38:14.854Z,20.23
2017-11-29T08:40:42.991Z,21.00
2017-11-29T08:43:11.043Z,20.42
2017-11-29T08:45:39.114Z,19.10
2017-11-29T08:48:07.201Z,21.42
2017-11-29T08:50:35.277Z,21.35
2017-11-29T08:53:03.345Z,18.92
2017-11-29T08:55:31.397Z,18.98
2017-11-29T08:57:59.486Z,21.85
2017-11-29T09:00:27.564Z,20.75
2017-11-29T09:02:55.739Z,21.17
2017-11-29T09:05:24.587Z,21.62
2017-11-29T09:07:53.417Z,20.88
2017-11-29T09:10:21.477Z,19.90
2017-11-29T09:12:49.558Z,21.00
2017-11-29T09:15:17.642Z,15.18
2017-11-29T09:17:45.810Z,16.15
2017-11-29T09:20:13.886Z,18.15
2017-11-29T09:22:41.950Z,19.15
2017-11-29T09:25:10.016Z,16.23
2017-11-29T09:27:38.483Z,17.17
2017-11-29T09:30:06.543Z,16.42
2017-11-29T09:32:35.379Z,17.37
2017-11-29T09:35:03.534Z,18.48
2017-11-29T09:37:32.433Z,16.30
2017-11-29T09:40:00.519Z,15.57
2017-11-29T09:42:28.678Z,14.85
2017-11-29T09:44:56.738Z,17.30
2017-11-29T09:47:24.823Z,15.95
2017-11-29T09:49:52.905Z,16.48
2017-11-29T09:52:20.966Z,14.77
2017-11-29T09:54:49.042Z,17.60
2017-11-29T09:57:17.070Z,11.93
2017-11-29T11:08:42.106Z,11.23
2017-11-29T11:11:10.247Z,11.77
2017-11-29T11:13:38.322Z,11.07
2017-11-29T11:16:06.495Z,10.57
2017-11-29T11:18:34.566Z,9.15
2017-11-29T11:21:02.638Z,10.70
2017-11-29T11:23:30.710Z,9.63
2017-11-29T11:25:58.814Z,10.20
2017-11-29T11:28:26.868Z,8.82
2017-11-29T11:30:55.027Z,8.45
2017-11-29T11:33:23.078Z,8.38
2017-11-29T11:35:51.170Z,7.03
2017-11-29T11:38:19.220Z,6.70
2017-11-29T11:40:48.056Z,6.78
2017-11-29T11:43:16.106Z,7.20
2017-11-29T11:45:44.175Z,5.32
2017-11-29T11:48:12.239Z,6.10
2017-11-29T11:50:40.747Z,6.57
2017-11-29T11:53:08.797Z,6.82
2017-11-29T11:55:36.864Z,7.07
2017-11-29T11:58:04.945Z,6.20
2017-11-29T12:00:33.018Z,7.00
2017-11-29T12:03:01.086Z,6.65
2017-11-29T12:05:29.159Z,8.50
2017-11-29T12:07:57.358Z,8.50
2017-11-29T12:10:25.421Z,9.93
2017-11-29T12:12:53.578Z,9.18
2017-11-29T12:15:21.651Z,8.05
2017-11-29T12:17:49.722Z,10.63
2017-11-29T12:20:17.770Z,8.73
2017-11-29T12:22:46.686Z,9.10
2017-11-29T12:25:14.759Z,7.35
2017-11-29T12:27:42.803Z,7.43
2017-11-29T12:30:11.611Z,7.75
2017-11-29T12:32:40.134Z,8.63
2017-11-29T12:35:08.203Z,8.27
2017-11-29T12:37:36.345Z,8.82
2017-11-29T12:40:04.414Z,8.95
2017-11-29T12:42:32.462Z,7.93
2017-11-29T12:45:01.391Z,10.05
2017-11-29T12:47:29.555Z,7.95
2017-11-29T12:50:09.606Z,6.35
2017-11-29T12:52:37.666Z,6.50
2017-11-29T12:55:05.714Z,4.68
2017-11-29T12:57:34.643Z,4.60
2017-11-29T13:00:02.727Z,4.87
2017-11-29T13:02:30.791Z,4.40
2017-11-29T13:04:58.848Z,3.60
2017-11-29T13:07:26.930Z,3.60
2017-11-29T13:09:54.990Z,3.70
2017-11-29T13:12:23.075Z,3.53
2017-11-29T13:14:51.142Z,3.40
2017-11-29T13:17:19.187Z,3.72
2017-11-29T13:19:48.003Z,3.17
2017-11-29T13:22:16.083Z,3.60
2017-11-29T13:24:44.970Z,3.12
2017-11-29T13:27:13.402Z,2.75
2017-11-29T13:29:41.533Z,4.60
2017-11-29T13:32:09.595Z,3.00
2017-11-29T13:34:41.064Z,3.20
2017-11-29T13:37:09.101Z,3.40
2017-11-29T13:39:37.599Z,3.92
2017-11-29T13:42:05.671Z,3.15
2017-11-29T13:44:33.743Z,3.20
2017-11-29T13:47:01.818Z,4.12
2017-11-29T13:49:30.246Z,3.22
2017-11-29T13:51:58.324Z,4.03
2017-11-29T13:54:26.372Z,5.80
2017-11-29T13:56:54.520Z,5.05
2017-11-29T13:59:22.563Z,4.75
2017-11-29T14:01:50.635Z,7.05
2017-11-29T14:04:18.730Z,4.70
2017-11-29T14:06:46.806Z,4.60
2017-11-29T14:09:14.850Z,5.25
2017-11-29T14:11:42.943Z,5.07
2017-11-29T14:14:11.018Z,4.70
2017-11-29T14:16:39.071Z,5.68
2017-11-29T14:19:07.134Z,6.70
2017-11-29T14:21:35.950Z,7.12
2017-11-29T14:24:03.996Z,5.87
2017-11-29T14:26:32.058Z,12.98
2017-11-29T14:29:00.879Z,8.45
2017-11-29T14:31:29.350Z,6.45
2017-11-29T14:33:57.394Z,5.05
2017-11-29T14:36:26.229Z,5.97
2017-11-29T14:38:54.286Z,6.65
2017-11-29T14:41:22.355Z,6.15
2017-11-29T14:43:50.411Z,6.05
2017-11-29T14:46:19.222Z,6.50
2017-11-29T14:48:47.304Z,9.68
2017-11-29T14:51:15.414Z,7.70
2017-11-29T14:53:43.542Z,7.68
2017-11-29T14:56:11.594Z,10.20
2017-11-29T14:58:39.659Z,7.12
2017-11-29T15:01:08.470Z,9.85
2017-11-29T15:03:36.530Z,6.12
2017-11-29T15:06:04.585Z,9.23
2017-11-29T15:08:33.510Z,7.80
2017-11-29T15:11:01.703Z,8.73
2017-11-29T15:13:30.484Z,12.63
2017-11-29T15:15:59.922Z,7.35
2017-11-29T15:18:27.979Z,7.78
2017-11-29T15:20:56.022Z,7.43
2017-11-29T15:23:24.484Z,8.45
2017-11-29T15:25:53.308Z,9.57
2017-11-29T15:28:21.366Z,7.93
2017-11-29T15:30:49.416Z,9.98
2017-11-29T15:33:17.475Z,11.30
2017-11-29T15:35:46.291Z,9.27
2017-11-29T15:38:14.360Z,11.88
2017-11-29T15:40:42.394Z,6.65
2017-11-29T15:43:10.463Z,9.98
2017-11-29T15:45:38.505Z,9.43
2017-11-29T15:48:06.948Z,8.00
2017-11-29T15:50:35.019Z,9.35
2017-11-29T15:53:03.064Z,10.55
2017-11-29T15:55:31.879Z,9.52
2017-11-29T15:57:59.969Z,8.52
2017-11-29T16:00:28.019Z,13.68
2017-11-29T16:02:56.114Z,14.82
2017-11-29T16:05:24.158Z,7.95
2017-11-29T16:07:52.259Z,6.07
2017-11-29T16:10:20.326Z,8.18
2017-11-29T16:12:48.374Z,7.80
2017-11-29T16:15:16.422Z,6.62
2017-11-29T16:17:44.484Z,8.20
2017-11-29T16:20:12.610Z,7.50
2017-11-29T16:22:40.674Z,10.45
2017-11-29T16:25:08.728Z,10.82
2017-11-29T16:27:37.559Z,11.50
2017-11-29T16:30:06.746Z,10.85
2017-11-29T16:32:34.918Z,10.50
2017-11-29T16:35:03.012Z,7.45
2017-11-29T16:37:31.043Z,6.70
2017-11-29T16:39:59.102Z,6.97
2017-11-29T16:42:27.919Z,10.70
2017-11-29T16:44:55.983Z,10.85
2017-11-29T16:47:24.886Z,7.50
2017-11-29T16:49:52.954Z,6.95
2017-11-29T16:52:21.129Z,6.40
2017-11-29T16:54:49.203Z,7.53
2017-11-29T16:57:17.279Z,7.70
2017-11-29T16:59:45.450Z,7.10
2017-11-29T17:02:13.502Z,10.73
2017-11-29T17:04:41.934Z,7.22
2017-11-29T17:07:09.998Z,9.55
2017-11-29T17:09:38.147Z,8.10
2017-11-29T17:12:06.218Z,12.18
2017-11-29T17:14:34.296Z,8.90
2017-11-29T17:17:03.177Z,10.23
2017-11-29T17:19:31.226Z,12.80
2017-11-29T17:21:59.698Z,10.52
2017-11-29T17:24:28.518Z,9.30
2017-11-29T17:26:57.379Z,8.52
2017-11-29T17:29:26.302Z,8.50
2017-11-29T17:31:54.358Z,9.48
2017-11-29T17:34:22.410Z,8.80
2017-11-29T17:36:51.234Z,6.93
2017-11-29T17:39:19.303Z,10.32
2017-11-29T17:41:47.383Z,10.77
2017-11-29T17:44:15.427Z,9.43
2017-11-29T17:46:44.258Z,9.82
2017-11-29T17:49:12.310Z,10.68
2017-11-29T17:51:40.370Z,12.15
2017-11-29T17:54:08.454Z,11.95
2017-11-29T17:56:36.518Z,10.38
2017-11-29T17:59:04.570Z,11.18
2017-11-29T18:01:33.403Z,18.67
2017-11-29T18:04:01.566Z,14.52
2017-11-29T18:06:29.726Z,19.35
2017-11-29T18:08:58.223Z,20.55
2017-11-29T18:11:27.047Z,14.70
2017-11-29T18:13:55.961Z,16.25
2017-11-29T18:16:25.618Z,14.95
2017-11-29T18:18:53.712Z,16.42
2017-11-29T18:21:21.931Z,11.82
2017-11-29T18:23:50.767Z,16.05
2017-11-29T18:26:19.234Z,12.52
2017-11-29T18:28:47.331Z,19.92
2017-11-29T18:31:15.562Z,34.92
2017-11-29T18:33:44.141Z,29.05
2017-11-29T18:36:12.222Z,28.08
2017-11-29T18:38:41.048Z,21.92
2017-11-29T18:41:09.863Z,15.23
2017-11-29T18:43:38.707Z,18.05
2017-11-29T18:46:06.900Z,15.55
2017-11-29T18:48:35.362Z,13.50
2017-11-29T18:51:03.497Z,15.65
2017-11-29T18:53:32.555Z,13.77
2017-11-29T18:56:01.489Z,17.25
2017-11-29T18:58:29.572Z,14.27
2017-11-29T19:00:58.039Z,17.52
2017-11-29T19:03:26.512Z,21.27
2017-11-29T19:05:55.171Z,15.10
2017-11-29T19:08:24.039Z,16.23
2017-11-29T19:10:52.964Z,14.30
2017-11-29T19:13:21.444Z,12.80
2017-11-29T19:15:49.579Z,17.95
2017-11-29T19:18:18.427Z,13.07
2017-11-29T19:20:47.267Z,18.55
2017-11-29T19:23:16.090Z,16.40
2017-11-29T19:25:44.634Z,16.60
2017-11-29T19:28:12.696Z,14.35
2017-11-29T19:30:40.889Z,12.25
2017-11-29T19:33:09.177Z,17.52
2017-11-29T19:35:37.251Z,14.90
2017-11-29T19:38:05.819Z,16.00
2017-11-29T19:40:33.988Z,19.00
2017-11-29T19:43:02.042Z,18.83
2017-11-29T19:45:30.300Z,20.52
2017-11-29T19:47:59.210Z,17.35
2017-11-29T19:50:27.295Z,15.32
2017-11-29T19:52:55.480Z,21.92
2017-11-29T19:55:24.003Z,17.15
2017-11-29T19:57:53.566Z,18.23
2017-11-29T20:00:21.700Z,16.83
2017-11-29T20:02:49.771Z,19.05
2017-11-29T20:05:19.195Z,13.25
2017-11-29T20:07:47.554Z,14.98
2017-11-29T20:10:16.410Z,17.45
2017-11-29T20:12:45.911Z,13.88
2017-11-29T20:15:15.086Z,17.15
2017-11-29T20:17:43.150Z,20.35
2017-11-29T20:20:11.366Z,20.00
2017-11-29T20:22:39.525Z,15.65
2017-11-29T20:25:07.677Z,18.65
2017-11-29T20:27:36.570Z,13.35
2017-11-29T20:30:05.704Z,13.65
2017-11-29T20:32:35.182Z,21.23
2017-11-29T20:35:03.958Z,16.15
2017-11-29T20:37:32.045Z,13.07
2017-11-29T20:40:00.510Z,19.08
2017-11-29T20:42:28.586Z,13.27
2017-11-29T20:44:56.666Z,14.98
2017-11-29T20:47:24.726Z,16.00
2017-11-29T20:49:52.794Z,17.10
2017-11-29T20:55:26.674Z,15.68
2017-11-29T20:57:54.807Z,14.35
2017-11-29T21:00:22.887Z,15.35
2017-11-29T21:02:51.779Z,17.35
2017-11-29T21:05:20.978Z,18.33
2017-11-29T21:07:49.043Z,18.37
2017-11-29T21:10:17.490Z,15.18
2017-11-29T21:12:45.946Z,18.35
2017-11-29T21:15:14.005Z,16.15
2017-11-29T21:17:42.570Z,15.70
2017-11-29T21:20:11.451Z,15.73
2017-11-29T21:22:39.622Z,16.70
2017-11-29T21:25:07.701Z,17.83
2017-11-29T21:27:35.866Z,17.80
2017-11-29T21:30:03.935Z,20.70
2017-11-29T21:32:31.992Z,20.25
2017-11-29T21:35:00.055Z,21.52
2017-11-29T21:37:28.502Z,21.23
2017-11-29T21:39:56.569Z,18.33
2017-11-29T21:42:24.724Z,25.17
2017-11-29T21:44:52.782Z,20.95
2017-11-29T21:47:20.851Z,17.50
2017-11-29T21:49:50.193Z,15.95
2017-11-29T21:52:19.764Z,15.90
2017-11-29T21:54:48.582Z,15.07
2017-11-29T21:57:16.722Z,16.05
2017-11-29T21:59:45.998Z,16.00
2017-11-29T22:02:14.099Z,20.02
2017-11-29T22:04:42.160Z,18.00
2017-11-29T22:07:10.223Z,14.55
2017-11-29T22:09:38.284Z,16.67
2017-11-29T22:12:07.111Z,18.80
2017-11-29T22:15:00.270Z,16.70
2017-11-29T22:17:30.988Z,18.15
2017-11-29T22:20:05.758Z,15.15
2017-11-29T22:22:35.739Z,17.17
2017-11-29T22:25:03.868Z,16.25
2017-11-29T22:27:33.007Z,19.62
2017-11-29T22:30:02.088Z,18.12
2017-11-29T22:32:30.299Z,20.83
2017-11-29T22:34:58.359Z,15.80
2017-11-29T22:37:26.854Z,19.40
2017-11-29T22:39:55.014Z,17.02
2017-11-29T22:42:23.090Z,20.75
2017-11-29T22:44:51.163Z,18.67
2017-11-29T22:47:19.341Z,17.90
2017-11-29T22:49:47.406Z,19.15
2017-11-29T22:52:15.579Z,20.02
2017-11-29T22:54:43.650Z,23.35
2017-11-29T22:57:11.726Z,18.75
2017-11-29T22:59:39.794Z,18.17
2017-11-29T23:02:07.849Z,21.12
2017-11-29T23:04:35.943Z,18.08
2017-11-29T23:07:04.014Z,23.70
2017-11-29T23:09:32.183Z,24.12
2017-11-29T23:12:00.243Z,19.30
2017-11-29T23:14:28.327Z,19.10
2017-11-29T23:16:56.382Z,19.80
2017-11-29T23:19:24.900Z,25.58
2017-11-29T23:21:53.779Z,20.88
2017-11-29T23:24:21.842Z,18.60
2017-11-29T23:26:51.050Z,21.50
2017-11-29T23:29:19.114Z,20.20
2017-11-29T23:31:47.178Z,21.50
2017-11-29T23:34:15.259Z,21.67
